Time;durP1;ratioP1;P1;durP2;ratioP2;P2;SDS_P1;SDS_P2;PMS_P1;PMS_P2;Temp;Humidity;BMP_temperature;BMP_pressure;BME280_temperature;BME280_humidity;BME280_pressure;Samples;Min_cycle;Max_cycle;Signal;HPM_P1;HPM_P2
2023/10/04 00:02:23;;;;;;;16.48;4.70;;;;;;;11.93;100.00;101190.41;4989939;28;20518;-77
2023/10/04 00:04:49;;;;;;;20.43;4.30;;;;;;;11.96;100.00;101201.63;4987062;28;20033;-77
2023/10/04 00:07:14;;;;;;;19.85;4.43;;;;;;;11.91;100.00;101200.41;5003373;28;20460;-77
2023/10/04 00:09:41;;;;;;;17.47;4.37;;;;;;;12.05;100.00;101213.19;5005061;28;20055;-77
2023/10/04 00:12:08;;;;;;;24.38;5.45;;;;;;;12.10;100.00;101218.88;5003508;28;20030;-77
2023/10/04 00:14:33;;;;;;;20.38;4.30;;;;;;;12.20;100.00;101210.75;5005468;28;20139;-77
2023/10/04 00:17:01;;;;;;;11.77;3.73;;;;;;;12.13;100.00;101201.69;5004402;28;20497;-77
2023/10/04 00:19:28;;;;;;;9.85;3.20;;;;;;;12.00;100.00;101194.94;5005572;28;20033;-77
2023/10/04 00:21:53;;;;;;;17.60;4.22;;;;;;;12.01;100.00;101193.94;5006505;28;20033;-78
2023/10/04 00:24:18;;;;;;;4.13;2.38;;;;;;;11.96;100.00;101203.44;4996224;28;20040;-77
2023/10/04 00:26:45;;;;;;;5.97;2.53;;;;;;;12.11;100.00;101198.34;5004094;28;20443;-77
2023/10/04 00:29:11;;;;;;;;;;;;;;;11.98;100.00;101199.59;5001763;28;20585;-77
2023/10/04 00:31:36;;;;;;;11.85;3.03;;;;;;;12.06;100.00;101212.19;4990081;28;20012;-77
2023/10/04 00:34:03;;;;;;;12.52;2.70;;;;;;;11.95;100.00;101205.28;5001184;28;20130;-78
2023/10/04 00:36:29;;;;;;;8.48;2.85;;;;;;;12.06;100.00;101206.84;4988298;28;20035;-78
2023/10/04 00:38:54;;;;;;;7.70;2.90;;;;;;;12.01;100.00;101209.16;5005159;28;20104;-77
2023/10/04 00:41:20;;;;;;;13.88;3.45;;;;;;;11.96;100.00;101208.78;5001968;28;20293;-77
2023/10/04 00:43:49;;;;;;;10.57;3.25;;;;;;;11.98;100.00;101209.47;4975101;28;20030;-77
2023/10/04 00:46:19;;;;;;;9.55;3.15;;;;;;;12.13;100.00;101207.06;5001360;28;20393;-77
2023/10/04 00:48:45;;;;;;;8.25;3.35;;;;;;;12.18;100.00;101213.59;5001559;28;20030;-78
2023/10/04 00:51:15;;;;;;;14.30;3.15;;;;;;;12.14;100.00;101208.72;5001217;28;20061;-77
2023/10/04 00:53:42;;;;;;;9.68;3.20;;;;;;;12.12;100.00;101198.16;4989477;28;20025;-77
2023/10/04 00:56:12;;;;;;;11.65;3.28;;;;;;;12.13;100.00;101204.38;5001840;28;20022;-77
2023/10/04 00:58:39;;;;;;;9.32;2.92;;;;;;;12.24;100.00;101209.41;4973570;28;20056;-77
2023/10/04 01:01:06;;;;;;;13.95;2.47;;;;;;;12.18;100.00;101204.72;5002485;28;20311;-78
2023/10/04 01:03:36;;;;;;;13.13;3.13;;;;;;;12.12;100.00;101203.50;5003653;28;20032;-78
2023/10/04 01:06:03;;;;;;;9.88;2.78;;;;;;;12.10;100.00;101202.00;4998212;28;20121;-77
2023/10/04 01:08:30;;;;;;;7.55;2.53;;;;;;;12.20;100.00;101208.09;5001559;28;20496;-78
2023/10/04 01:10:56;;;;;;;5.70;2.15;;;;;;;12.23;100.00;101213.09;5003108;28;20026;-77
2023/10/04 01:13:22;;;;;;;11.60;2.80;;;;;;;12.26;100.00;101210.09;5000671;28;20101;-78
2023/10/04 01:15:54;;;;;;;;;;;;;;;12.32;100.00;101222.00;4983785;28;20034;-77
2023/10/04 01:18:23;;;;;;;6.85;2.35;;;;;;;12.32;100.00;101216.66;4994654;28;19921;-77
2023/10/04 01:20:50;;;;;;;9.75;2.42;;;;;;;12.23;100.00;101213.94;5001761;28;20029;-77
2023/10/04 01:23:18;;;;;;;8.43;3.45;;;;;;;12.35;100.00;101227.03;4999603;28;20972;-78
2023/10/04 01:25:46;;;;;;;16.13;2.63;;;;;;;12.38;100.00;101227.53;4987729;28;20109;-77
2023/10/04 01:28:16;;;;;;;13.55;3.08;;;;;;;12.25;100.00;101225.31;4997589;28;20316;-78
2023/10/04 01:30:46;;;;;;;14.38;3.35;;;;;;;12.27;100.00;101218.94;4998833;28;20080;-77
2023/10/04 01:33:16;;;;;;;15.15;3.45;;;;;;;12.25;100.00;101225.31;4998643;28;20491;-77
2023/10/04 01:35:49;;;;;;;9.52;2.70;;;;;;;12.39;100.00;101213.16;5001893;28;20381;-77
2023/10/04 01:38:15;;;;;;;12.00;2.70;;;;;;;12.35;100.00;101213.63;5002670;28;20035;-77
2023/10/04 01:40:43;;;;;;;11.15;2.88;;;;;;;12.29;100.00;101215.13;5002987;28;20034;-77
2023/10/04 01:43:15;;;;;;;11.75;3.00;;;;;;;12.25;100.00;101222.66;5002310;28;20045;-78
2023/10/04 01:45:45;;;;;;;15.00;3.63;;;;;;;12.23;100.00;101229.16;5000641;28;20034;-77
2023/10/04 01:48:11;;;;;;;13.77;4.03;;;;;;;12.30;100.00;101226.69;5002677;28;20381;-77
2023/10/04 01:50:36;;;;;;;19.98;4.20;;;;;;;12.28;100.00;101226.00;4991123;28;20029;-78
2023/10/04 01:53:02;;;;;;;19.33;3.37;;;;;;;12.30;100.00;101242.75;4986543;28;20108;-77
2023/10/04 01:55:28;;;;;;;16.00;4.47;;;;;;;12.24;100.00;101229.00;4988413;28;20050;-77
2023/10/04 01:57:54;;;;;;;10.47;4.07;;;;;;;12.32;100.00;101240.75;5006250;28;20041;-77
2023/10/04 02:00:22;;;;;;;18.27;4.63;;;;;;;12.38;100.00;101243.59;4997514;28;20034;-77
2023/10/04 02:02:48;;;;;;;17.35;4.00;;;;;;;12.49;100.00;101250.50;4993744;28;20362;-78
2023/10/04 02:05:18;;;;;;;23.75;6.47;;;;;;;12.51;100.00;101264.56;5001153;28;20034;-77
2023/10/04 02:07:44;;;;;;;13.60;4.15;;;;;;;12.48;100.00;101246.16;5007091;28;20040;-77
2023/10/04 02:10:11;;;;;;;21.93;4.47;;;;;;;12.29;100.00;101235.69;5001456;28;20101;-77
2023/10/04 02:12:36;;;;;;;15.55;4.78;;;;;;;12.24;100.00;101231.69;5004976;28;20034;-77
2023/10/04 02:15:02;;;;;;;19.13;6.47;;;;;;;12.25;100.00;101236.03;5003098;28;20385;-78
2023/10/04 02:17:29;;;;;;;16.65;4.50;;;;;;;12.22;100.00;101238.19;5002913;28;20584;-78
2023/10/04 02:19:54;;;;;;;20.70;4.25;;;;;;;12.16;100.00;101236.16;4985730;28;20036;-78
2023/10/04 02:22:20;;;;;;;21.58;5.75;;;;;;;12.22;100.00;101243.53;5002144;28;20026;-78
2023/10/04 02:24:47;;;;;;;15.85;4.43;;;;;;;12.30;100.00;101256.13;4996517;28;20477;-78
2023/10/04 02:27:12;;;;;;;;;;;;;;;12.34;100.00;101262.81;5000198;28;20037;-77
2023/10/04 02:29:44;;;;;;;;;;;;;;;12.38;100.00;101261.50;5004341;28;19917;-78
2023/10/04 02:32:10;;;;;;;13.57;3.70;;;;;;;12.25;100.00;101252.09;5000222;28;19914;-78
2023/10/04 02:34:38;;;;;;;14.57;3.70;;;;;;;12.33;100.00;101261.16;5006135;28;20164;-78
2023/10/04 02:37:07;;;;;;;17.38;5.40;;;;;;;12.43;100.00;101273.41;5000788;28;20041;-78
2023/10/04 02:39:36;;;;;;;18.00;4.28;;;;;;;12.24;100.00;101258.47;4988197;28;20070;-78
2023/10/04 02:42:12;;;;;;;14.75;3.72;;;;;;;12.16;100.00;101247.69;5001325;28;20302;-78
2023/10/04 02:44:37;;;;;;;11.67;3.23;;;;;;;12.19;100.00;101257.25;4988664;28;20102;-77
2023/10/04 02:47:06;;;;;;;12.48;2.67;;;;;;;12.26;100.00;101250.25;5001198;28;20033;-78
2023/10/04 02:49:38;;;;;;;15.02;3.45;;;;;;;12.19;100.00;101254.56;4987461;28;20042;-78
2023/10/04 02:52:07;;;;;;;16.80;3.47;;;;;;;12.14;100.00;101244.34;5002170;28;20029;-78
2023/10/04 02:54:33;;;;;;;18.63;4.15;;;;;;;12.18;100.00;101261.75;4987679;28;20490;-78
2023/10/04 02:57:03;;;;;;;;;;;;;;;12.24;100.00;101250.44;4991683;28;20026;-78
2023/10/04 02:59:32;;;;;;;12.00;2.88;;;;;;;12.27;100.00;101240.38;5000304;28;20324;-77
2023/10/04 03:01:58;;;;;;;10.70;2.88;;;;;;;12.22;100.00;101254.25;5004307;28;20504;-77
2023/10/04 03:04:24;;;;;;;;;;;;;;;12.30;100.00;101262.31;4986949;28;20034;-78
2023/10/04 03:06:51;;;;;;;13.05;3.47;;;;;;;12.29;100.00;101254.44;5002075;28;19936;-78
2023/10/04 03:09:17;;;;;;;10.45;2.75;;;;;;;12.28;100.00;101250.09;4998671;28;20037;-77
2023/10/04 03:11:43;;;;;;;13.10;2.85;;;;;;;12.27;100.00;101248.41;4977451;28;20021;-77
2023/10/04 03:14:11;;;;;;;;;;;;;;;12.38;100.00;101261.50;5000293;28;20044;-77
2023/10/04 03:16:37;;;;;;;11.07;3.72;;;;;;;12.27;100.00;101251.94;4987035;28;19999;-77
2023/10/04 03:19:03;;;;;;;15.45;4.55;;;;;;;12.18;100.00;101247.56;5001131;28;20076;-77
2023/10/04 03:21:33;;;;;;;12.23;2.67;;;;;;;12.18;100.00;101248.38;5004009;28;20048;-77
2023/10/04 03:24:06;;;;;;;10.35;2.63;;;;;;;12.27;100.00;101259.97;5000465;28;20036;-78
2023/10/04 03:26:32;;;;;;;12.88;4.03;;;;;;;12.15;100.00;101254.06;4987442;28;20529;-77
2023/10/04 03:28:58;;;;;;;8.77;3.53;;;;;;;12.19;100.00;101255.41;5000637;28;20024;-78
2023/10/04 03:31:28;;;;;;;12.55;2.95;;;;;;;12.24;100.00;101268.31;4986387;28;20548;-77
2023/10/04 03:33:56;;;;;;;17.27;2.75;;;;;;;12.29;100.00;101259.78;5001557;28;20029;-77
2023/10/04 03:36:25;;;;;;;17.23;3.28;;;;;;;12.20;100.00;101257.09;4986517;28;20023;-78
2023/10/04 03:38:55;;;;;;;12.75;2.60;;;;;;;12.17;100.00;101268.09;5003354;28;20030;-77
2023/10/04 03:41:21;;;;;;;13.52;3.67;;;;;;;12.13;100.00;101266.75;4988093;28;20027;-78
2023/10/04 03:43:49;;;;;;;16.27;2.80;;;;;;;12.11;100.00;101270.59;4984640;28;20030;-78
2023/10/04 03:46:18;;;;;;;13.82;3.58;;;;;;;12.17;100.00;101278.81;4987557;28;20041;-78
2023/10/04 03:48:45;;;;;;;17.75;3.85;;;;;;;12.12;100.00;101269.59;5001112;28;20030;-77
2023/10/04 03:51:11;;;;;;;10.52;3.03;;;;;;;12.14;100.00;101276.47;5000374;28;20030;-77
2023/10/04 03:53:37;;;;;;;23.25;2.67;;;;;;;12.18;100.00;101285.03;4987908;28;20024;-77
2023/10/04 03:56:04;;;;;;;15.47;2.77;;;;;;;12.24;100.00;101281.69;4985219;28;20123;-78
2023/10/04 03:58:33;;;;;;;15.15;3.38;;;;;;;12.19;100.00;101287.53;4985921;28;20038;-77
2023/10/04 04:00:58;;;;;;;8.57;3.38;;;;;;;12.32;100.00;101283.59;5002494;28;20087;-78
2023/10/04 04:03:24;;;;;;;24.43;3.33;;;;;;;12.30;100.00;101285.59;4985094;28;20524;-77
2023/10/04 04:05:50;;;;;;;16.20;3.63;;;;;;;12.04;100.00;101287.28;4983321;28;20066;-78
2023/10/04 04:08:16;;;;;;;;;;;;;;;12.11;100.00;101300.03;4986792;28;20061;-77
2023/10/04 04:10:41;;;;;;;16.27;3.83;;;;;;;12.16;100.00;101303.06;4983410;28;19984;-78
2023/10/04 04:13:07;;;;;;;14.13;3.25;;;;;;;12.22;100.00;101308.63;4998942;28;20038;-78
2023/10/04 04:15:35;;;;;;;16.67;3.78;;;;;;;12.07;100.00;101299.50;4985177;28;20045;-77
2023/10/04 04:18:06;;;;;;;22.30;4.03;;;;;;;12.16;100.00;101305.75;5000051;28;20036;-77
2023/10/04 04:20:32;;;;;;;18.67;4.60;;;;;;;12.10;100.00;101291.16;4985398;28;20049;-77
2023/10/04 04:22:57;;;;;;;16.23;4.65;;;;;;;12.24;100.00;101298.63;5000431;28;20022;-77
2023/10/04 04:25:26;;;;;;;16.45;4.25;;;;;;;12.14;100.00;101297.88;4984863;28;20041;-78
2023/10/04 04:27:53;;;;;;;11.10;3.97;;;;;;;12.16;100.00;101282.50;5001318;28;20017;-77
2023/10/04 04:30:23;;;;;;;11.63;4.45;;;;;;;12.18;100.00;101301.91;4997678;28;20022;-77
2023/10/04 04:32:56;;;;;;;18.38;5.43;;;;;;;12.38;100.00;101309.69;4982925;28;20022;-77
2023/10/04 04:40:49;;;;;;;13.20;3.63;;;;;;;12.35;100.00;101324.25;4998781;28;20588;-78
2023/10/04 04:45:52;;;;;;;13.30;3.27;;;;;;;12.24;100.00;101336.09;4994021;28;20026;-77
2023/10/04 04:48:24;;;;;;;18.83;3.42;;;;;;;12.24;100.00;101341.44;4991912;28;20448;-79
2023/10/04 04:50:54;;;;;;;12.10;3.60;;;;;;;12.29;100.00;101353.50;4967858;28;20470;-78
2023/10/04 04:53:24;;;;;;;10.63;3.20;;;;;;;12.12;100.00;101356.06;4977877;28;20101;-79
2023/10/04 04:55:51;;;;;;;11.73;3.30;;;;;;;12.10;100.00;101355.38;4979914;28;20459;-78
2023/10/04 04:58:20;;;;;;;;;;;;;;;12.21;100.00;101354.28;4983237;28;20477;-78
2023/10/04 05:00:50;;;;;;;19.83;5.13;;;;;;;12.12;100.00;101348.03;4983045;28;20490;-78
2023/10/04 05:03:21;;;;;;;18.15;3.20;;;;;;;12.03;100.00;101343.63;4994984;28;20053;-78
2023/10/04 05:05:50;;;;;;;8.95;3.45;;;;;;;12.12;100.00;101358.75;5013292;28;20204;-78
2023/10/04 05:08:20;;;;;;;13.95;3.42;;;;;;;12.04;100.00;101351.53;4995106;28;20028;-79
2023/10/04 05:10:48;;;;;;;11.93;3.33;;;;;;;12.13;100.00;101362.28;4998769;28;20084;-79
2023/10/04 05:13:14;;;;;;;13.90;2.78;;;;;;;12.00;100.00;101343.97;4998930;28;20477;-80
2023/10/04 05:15:42;;;;;;;13.97;2.97;;;;;;;12.04;100.00;101354.19;4986525;28;20060;-79
2023/10/04 05:18:15;;;;;;;16.30;4.78;;;;;;;12.19;100.00;101365.16;4999415;28;20025;-78
2023/10/04 05:20:41;;;;;;;12.05;3.53;;;;;;;12.11;100.00;101367.78;5001416;28;20508;-79
2023/10/04 05:23:09;;;;;;;9.20;2.22;;;;;;;12.09;100.00;101360.91;5002968;28;20525;-78
2023/10/04 05:25:34;;;;;;;14.05;3.45;;;;;;;12.15;100.00;101370.97;5001083;28;20034;-79
2023/10/04 05:28:14;;;;;;;17.20;3.08;;;;;;;12.09;100.00;101371.63;4999436;28;20446;-79
2023/10/04 05:30:42;;;;;;;15.40;3.97;;;;;;;12.00;100.00;101360.00;5002357;28;20034;-77
2023/10/04 05:33:08;;;;;;;14.70;3.58;;;;;;;12.12;100.00;101382.84;5001246;28;20546;-79
2023/10/04 05:35:35;;;;;;;9.88;2.78;;;;;;;12.08;100.00;101370.78;4985033;28;20027;-77
2023/10/04 05:38:03;;;;;;;10.63;2.80;;;;;;;12.16;100.00;101372.69;4983111;28;20124;-78
2023/10/04 05:40:30;;;;;;;12.65;3.13;;;;;;;12.06;100.00;101372.78;4999022;28;20446;-79
2023/10/04 05:42:56;;;;;;;10.80;3.47;;;;;;;12.06;100.00;101359.41;5000632;28;20060;-80
2023/10/04 05:45:22;;;;;;;12.65;2.75;;;;;;;12.05;100.00;101371.09;4998809;28;20485;-77
2023/10/04 05:47:50;;;;;;;12.05;2.42;;;;;;;12.03;100.00;101375.75;5000843;28;20025;-78
2023/10/04 05:50:22;;;;;;;11.40;2.72;;;;;;;12.04;100.00;101380.13;4999777;28;20474;-79
2023/10/04 05:52:52;;;;;;;13.43;3.85;;;;;;;12.21;100.00;101389.09;5001483;28;20463;-79
2023/10/04 05:55:19;;;;;;;25.60;3.33;;;;;;;12.37;100.00;101388.38;4999163;28;20030;-77
2023/10/04 05:57:55;;;;;;;12.18;4.50;;;;;;;12.38;100.00;101379.31;5003393;28;20036;-76
2023/10/04 06:02:51;;;;;;;16.17;5.10;;;;;;;12.38;100.00;101393.53;4997463;28;20088;-77
2023/10/04 06:05:16;;;;;;;23.38;6.03;;;;;;;12.39;100.00;101386.38;4980941;28;20031;-79
2023/10/04 06:07:43;;;;;;;27.47;5.70;;;;;;;12.32;100.00;101388.00;4997192;28;20022;-76
2023/10/04 06:10:11;;;;;;;14.90;4.57;;;;;;;12.42;100.00;101404.78;4997621;28;20273;-79
2023/10/04 06:12:38;;;;;;;13.15;4.57;;;;;;;12.48;100.00;101396.13;5001040;28;20031;-78
2023/10/04 06:15:04;;;;;;;18.05;3.45;;;;;;;12.51;100.00;101409.19;4982371;28;20053;-78
2023/10/04 06:17:31;;;;;;;13.73;4.38;;;;;;;12.46;100.00;101403.47;4982747;28;20498;-79
2023/10/04 06:19:57;;;;;;;13.90;4.25;;;;;;;12.63;100.00;101413.28;4998881;28;20022;-76
2023/10/04 06:22:22;;;;;;;19.87;5.07;;;;;;;12.54;100.00;101408.88;5005693;28;20038;-76
2023/10/04 06:24:48;;;;;;;11.80;3.47;;;;;;;12.55;100.00;101417.72;5001222;28;20498;-77
2023/10/04 06:27:13;;;;;;;12.07;4.43;;;;;;;12.60;100.00;101416.28;5004957;28;20117;-79
2023/10/04 06:29:38;;;;;;;10.83;2.63;;;;;;;12.36;100.00;101406.28;5000813;28;20121;-78
2023/10/04 06:32:04;;;;;;;13.53;3.97;;;;;;;12.47;100.00;101423.91;5000717;28;20508;-78
2023/10/04 06:34:29;;;;;;;12.20;3.63;;;;;;;12.51;100.00;101419.91;5008458;28;20382;-78
2023/10/04 06:36:54;;;;;;;16.93;3.07;;;;;;;12.64;100.00;101425.69;5007999;28;20061;-78
2023/10/04 06:39:20;;;;;;;10.50;3.93;;;;;;;12.55;100.00;101407.88;5008022;28;20029;-78
2023/10/04 06:41:45;;;;;;;15.07;3.03;;;;;;;12.57;100.00;101419.28;5009242;28;20029;-78
2023/10/04 06:44:10;;;;;;;13.83;2.93;;;;;;;12.70;100.00;101428.72;4999705;28;20045;-77
2023/10/04 06:46:39;;;;;;;11.87;3.30;;;;;;;13.09;100.00;101445.97;4978559;28;20026;-79
2023/10/04 06:49:05;;;;;;;11.48;2.83;;;;;;;13.35;100.00;101437.03;5007548;28;20121;-78
2023/10/04 06:51:30;;;;;;;16.97;2.83;;;;;;;13.18;100.00;101422.72;5014196;28;20273;-80
2023/10/04 06:53:55;;;;;;;14.70;2.63;;;;;;;13.16;100.00;101429.22;5015116;28;20038;-80
2023/10/04 06:56:21;;;;;;;14.20;4.27;;;;;;;13.47;100.00;101448.28;5008415;28;20095;-81
2023/10/04 06:58:48;;;;;;;12.55;3.90;;;;;;;13.46;100.00;101450.16;4996441;28;20252;-76
2023/10/04 07:01:15;;;;;;;17.05;3.10;;;;;;;13.09;100.00;101445.97;5000943;28;20053;-81
2023/10/04 07:03:43;;;;;;;16.83;2.88;;;;;;;12.88;100.00;101454.44;5012787;28;20547;-78
2023/10/04 07:06:08;;;;;;;14.63;3.90;;;;;;;13.00;100.00;101476.44;5009473;28;20038;-80
2023/10/04 07:08:35;;;;;;;14.20;4.03;;;;;;;12.86;100.00;101469.00;4986578;28;20101;-80
2023/10/04 07:11:02;;;;;;;20.20;4.50;;;;;;;13.04;100.00;101488.50;5009529;28;20054;-80
2023/10/04 07:13:28;;;;;;;15.73;3.70;;;;;;;13.13;100.00;101504.63;5011254;28;20056;-76
2023/10/04 07:15:53;;;;;;;21.17;4.97;;;;;;;13.02;100.00;101503.09;4998783;28;20076;-79
2023/10/04 07:18:19;;;;;;;18.70;4.20;;;;;;;13.24;100.00;101509.72;5004517;28;20026;-80
2023/10/04 07:20:44;;;;;;;8.97;3.60;;;;;;;13.10;100.00;101495.06;5006333;28;20483;-78
2023/10/04 07:23:13;;;;;;;18.63;3.92;;;;;;;12.99;100.00;101500.69;5003802;28;20032;-76
2023/10/04 07:25:41;;;;;;;;;;;;;;;13.18;100.00;101510.34;5009194;28;20093;-77
2023/10/04 07:28:11;;;;;;;18.27;4.53;;;;;;;13.65;100.00;101525.94;5009272;28;19914;-77
2023/10/04 07:30:37;;;;;;;12.50;4.03;;;;;;;14.02;100.00;101516.63;5004239;28;20532;-79
2023/10/04 07:33:03;;;;;;;15.80;3.90;;;;;;;14.29;100.00;101508.25;5003057;28;20034;-78
2023/10/04 07:35:31;;;;;;;11.43;4.18;;;;;;;13.87;100.00;101477.03;5009475;28;20049;-78
2023/10/04 07:37:58;;;;;;;13.70;3.80;;;;;;;14.25;100.00;101480.06;4986833;28;20588;-76
2023/10/04 07:40:25;;;;;;;14.18;4.00;;;;;;;14.90;100.00;101491.75;5007864;28;20026;-78
2023/10/04 07:42:53;;;;;;;13.40;3.95;;;;;;;14.56;100.00;101449.81;4999880;28;20029;-81
2023/10/04 07:45:20;;;;;;;9.98;3.13;;;;;;;14.48;100.00;101436.38;5008761;28;20037;-78
2023/10/04 07:47:46;;;;;;;16.52;3.75;;;;;;;14.23;100.00;101433.72;5002828;28;20578;-77
2023/10/04 07:50:19;;;;;;;21.73;3.60;;;;;;;13.96;100.00;101434.09;5008967;28;20022;-78
2023/10/04 07:52:44;;;;;;;12.60;4.28;;;;;;;14.62;100.00;101459.88;5008097;28;20500;-77
2023/10/04 07:55:17;;;;;;;22.38;4.18;;;;;;;15.06;100.00;101445.13;5010309;28;20021;-76
2023/10/04 07:57:52;;;;;;;14.73;3.50;;;;;;;14.77;100.00;101411.63;5008278;28;20048;-76
2023/10/04 08:00:18;;;;;;;13.10;4.00;;;;;;;14.75;100.00;101417.19;5009644;28;20038;-78
2023/10/04 08:02:51;;;;;;;12.97;3.33;;;;;;;14.93;100.00;101418.78;4989692;28;20113;-76
2023/10/04 08:05:26;;;;;;;14.55;4.80;;;;;;;15.87;100.00;101422.25;4998795;28;20105;-78
2023/10/04 08:07:53;;;;;;;16.42;3.88;;;;;;;16.29;100.00;101369.69;4994787;28;20069;-77
2023/10/04 08:10:23;;;;;;;14.63;3.63;;;;;;;15.93;100.00;101362.31;5010332;28;20018;-78
2023/10/04 08:12:51;;;;;;;15.45;3.83;;;;;;;15.68;100.00;101275.50;5010025;28;20041;-78
2023/10/04 08:15:19;;;;;;;12.32;2.97;;;;;;;15.53;100.00;101297.03;5001569;28;20042;-76
2023/10/04 08:17:48;;;;;;;17.25;3.92;;;;;;;15.93;100.00;101362.31;5008956;28;20026;-76
2023/10/04 08:20:14;;;;;;;12.10;3.00;;;;;;;16.17;100.00;101345.06;5008613;28;20029;-77
2023/10/04 08:22:43;;;;;;;14.40;3.38;;;;;;;16.55;100.00;101271.34;5008857;28;20026;-77
2023/10/04 08:25:13;;;;;;;9.50;2.83;;;;;;;16.75;100.00;101258.13;4988311;28;20034;-79
2023/10/04 08:27:39;;;;;;;12.65;3.28;;;;;;;17.08;100.00;101189.16;5007965;28;20030;-77
2023/10/04 08:30:12;;;;;;;14.82;3.38;;;;;;;16.87;100.00;101176.53;5006127;28;20623;-80
2023/10/04 08:32:40;;;;;;;11.40;2.92;;;;;;;17.53;100.00;101159.19;5007494;28;20067;-76
2023/10/04 08:35:06;;;;;;;14.73;3.58;;;;;;;17.90;100.00;101143.63;5008227;28;20075;-77
2023/10/04 08:37:31;;;;;;;10.98;4.07;;;;;;;17.83;100.00;101089.59;5007579;28;20493;-79
2023/10/04 08:39:56;;;;;;;13.17;3.90;;;;;;;18.16;100.00;101044.81;4998378;28;20030;-76
2023/10/04 08:42:25;;;;;;;11.47;3.13;;;;;;;17.91;100.00;100919.25;5006293;28;20504;-77
2023/10/04 08:44:51;;;;;;;12.95;2.90;;;;;;;18.06;100.00;101062.25;4999796;28;20049;-78
2023/10/04 08:47:16;;;;;;;12.40;2.55;;;;;;;18.63;100.00;100954.56;4998789;28;20091;-77
2023/10/04 08:49:55;;;;;;;13.00;3.67;;;;;;;17.85;100.00;100838.22;5006842;28;20061;-75
2023/10/04 08:52:29;;;;;;;17.83;3.67;;;;;;;18.70;100.00;100906.69;4995468;28;20072;-80
2023/10/04 08:55:06;;;;;;;17.08;3.78;;;;;;;18.75;100.00;100866.34;4998715;28;20037;-77
2023/10/04 08:57:38;;;;;;;11.63;2.63;;;;;;;18.82;100.00;100628.31;5006697;28;20697;-79
2023/10/04 09:00:13;;;;;;;13.48;3.08;;;;;;;18.52;100.00;100728.94;5008095;28;20058;-79
2023/10/04 09:02:42;;;;;;;14.25;3.08;;;;;;;19.00;100.00;100702.47;5008210;28;20049;-80
2023/10/04 09:05:10;;;;;;;13.35;3.25;;;;;;;18.58;100.00;100604.75;5007355;28;20038;-78
2023/10/04 09:07:38;;;;;;;15.48;3.15;;;;;;;17.86;100.00;100640.03;5008345;28;20412;-77
2023/10/04 09:10:06;;;;;;;13.75;3.97;;;;;;;17.03;100.00;100770.03;4999103;28;20018;-79
2023/10/04 09:12:31;;;;;;;13.23;2.80;;;;;;;17.64;100.00;100995.81;5007796;28;20552;-77
2023/10/04 09:14:57;;;;;;;12.88;4.47;;;;;;;18.36;100.00;100980.78;4997961;28;20152;-77
2023/10/04 09:17:25;;;;;;;14.10;2.73;;;;;;;18.39;100.00;100939.81;5004922;28;20117;-77
2023/10/04 09:19:51;;;;;;;19.33;4.35;;;;;;;18.46;100.00;100877.66;5008849;28;20057;-79
2023/10/04 09:22:29;;;;;;;12.57;3.13;;;;;;;18.35;100.00;100966.47;5008542;28;20068;-75
2023/10/04 09:24:56;;;;;;;19.67;4.18;;;;;;;18.70;100.00;100722.81;5001806;28;20037;-78
2023/10/04 09:27:22;;;;;;;18.08;2.97;;;;;;;18.49;100.00;100780.72;5008010;28;20014;-78
2023/10/04 09:29:53;;;;;;;;;;;;;;;18.29;100.00;100715.13;5008016;28;20033;-79
2023/10/04 09:32:38;;;;;;;16.20;4.13;;;;;;;19.01;100.00;100679.78;4998290;28;20376;-79
2023/10/04 09:35:04;;;;;;;20.53;3.13;;;;;;;19.20;100.00;100708.59;5004345;28;20038;-80
2023/10/04 09:37:29;;;;;;;23.17;3.50;;;;;;;19.76;100.00;100713.09;5007996;28;20208;-80
2023/10/04 09:40:12;;;;;;;15.47;3.73;;;;;;;19.06;100.00;100607.75;4998374;28;20034;-78
2023/10/04 09:42:51;;;;;;;14.18;4.10;;;;;;;18.21;100.00;100710.75;5006938;28;20046;-77
2023/10/04 09:45:20;;;;;;;19.45;3.22;;;;;;;18.34;100.00;100690.97;4998152;28;20400;-80
2023/10/04 09:47:46;;;;;;;12.18;3.28;;;;;;;19.09;100.00;100866.22;5007811;28;20489;-80
2023/10/04 09:50:19;;;;;;;;;;;;;;;19.68;100.00;100827.13;4998948;28;20451;-77
2023/10/04 09:52:44;;;;;;;10.23;2.78;;;;;;;19.01;100.00;100463.34;5008458;28;19913;-81
2023/10/04 09:55:12;;;;;;;12.30;4.00;;;;;;;19.94;100.00;100717.69;5004424;28;20036;-80
2023/10/04 09:57:41;;;;;;;11.27;2.72;;;;;;;19.98;100.00;100374.78;4993732;28;20080;-75
2023/10/04 10:00:17;;;;;;;16.60;2.75;;;;;;;20.30;100.00;100541.69;5014501;28;20026;-76
2023/10/04 10:02:47;;;;;;;21.70;4.13;;;;;;;20.30;100.00;100427.84;5013437;28;20072;-76
2023/10/04 10:05:26;;;;;;;12.10;3.70;;;;;;;19.44;100.00;100419.13;4996257;28;20037;-76
2023/10/04 10:07:53;;;;;;;9.13;2.45;;;;;;;19.58;100.00;100306.88;4996059;28;20034;-79
2023/10/04 10:10:21;;;;;;;19.48;3.20;;;;;;;19.51;100.00;100330.53;5007892;28;20049;-80
2023/10/04 10:12:50;;;;;;;15.10;3.85;;;;;;;19.93;100.00;100596.00;5013980;28;20034;-79
2023/10/04 10:15:18;;;;;;;12.75;3.30;;;;;;;19.40;100.00;100083.94;5013226;28;20048;-81
2023/10/04 10:17:46;;;;;;;16.10;3.50;;;;;;;20.43;100.00;100435.75;5013202;28;20578;-80
2023/10/04 10:20:12;;;;;;;15.27;3.35;;;;;;;20.66;100.00;100536.16;5013456;28;20121;-79
2023/10/04 10:22:58;;;;;;;13.93;3.67;;;;;;;20.78;100.00;100236.94;5007508;28;20113;-81
2023/10/04 10:25:25;;;;;;;15.25;3.08;;;;;;;19.47;100.00;100283.31;5012967;28;20413;-79
2023/10/04 10:27:55;;;;;;;19.02;3.00;;;;;;;20.37;100.00;100382.47;5012171;28;20033;-77
2023/10/04 10:30:21;;;;;;;12.52;3.38;;;;;;;19.99;100.00;100435.22;5014231;28;20532;-79
2023/10/04 10:32:53;;;;;;;13.18;3.67;;;;;;;18.75;100.00;100070.47;5014075;28;20101;-79
2023/10/04 10:35:50;;;;;;;19.92;3.45;;;;;;;18.71;100.00;100388.34;5013972;28;20030;-81
2023/10/04 10:38:41;;;;;;;10.65;2.70;;;;;;;18.86;100.00;100383.41;5012135;28;20742;-81
2023/10/04 10:41:09;;;;;;;19.13;4.18;;;;;;;19.68;100.00;100152.78;5002448;28;20026;-80
2023/10/04 10:43:37;;;;;;;17.80;4.07;;;;;;;20.13;100.00;100335.56;5007156;28;20037;-80
2023/10/04 10:46:31;;;;;;;15.35;3.70;;;;;;;20.28;100.00;99991.69;5007416;28;20112;-79
2023/10/04 10:49:00;;;;;;;11.40;3.08;;;;;;;21.27;100.00;100015.47;4981479;28;20112;-78
2023/10/04 10:51:45;;;;;;;14.52;3.17;;;;;;;21.38;100.00;100038.16;5010718;28;20113;-78
2023/10/04 10:54:11;;;;;;;14.60;4.32;;;;;;;20.62;100.00;99661.72;5009531;28;20120;-80
2023/10/04 10:56:37;;;;;;;12.73;3.45;;;;;;;21.06;100.00;99783.72;5010547;28;20060;-76
2023/10/04 10:59:04;;;;;;;14.43;3.83;;;;;;;19.10;100.00;99569.22;5011747;28;20014;-81
2023/10/04 11:01:30;;;;;;;11.70;2.88;;;;;;;19.08;100.00;100031.22;5010150;28;20038;-80
2023/10/04 11:03:55;;;;;;;10.93;3.87;;;;;;;18.82;100.00;100271.31;5012016;28;20026;-79
2023/10/04 11:06:20;;;;;;;11.50;2.67;;;;;;;17.85;100.00;100053.25;5009192;28;20045;-81
2023/10/04 11:08:47;;;;;;;16.80;4.27;;;;;;;17.89;100.00;100354.19;5011293;28;20030;-80
2023/10/04 11:11:13;;;;;;;15.60;3.25;;;;;;;17.92;100.00;100650.00;5011132;28;20041;-80
2023/10/04 11:13:44;;;;;;;11.20;3.17;;;;;;;18.07;100.00;100593.81;5012114;28;20022;-80
2023/10/04 11:16:10;;;;;;;9.48;3.10;;;;;;;19.55;100.00;100549.16;5011918;28;20033;-80
2023/10/04 11:18:38;;;;;;;10.63;3.72;;;;;;;19.44;100.00;100251.28;4993386;28;20069;-79
2023/10/04 11:21:04;;;;;;;15.45;3.53;;;;;;;21.17;100.00;100296.81;5012235;28;20465;-79
2023/10/04 11:23:30;;;;;;;13.15;3.63;;;;;;;21.64;100.00;100123.53;5012421;28;20040;-80
2023/10/04 11:25:59;;;;;;;11.23;3.30;;;;;;;21.82;100.00;99966.72;5006178;28;20492;-81
2023/10/04 11:28:25;;;;;;;12.32;3.85;;;;;;;22.02;95.01;99648.16;5011565;28;20046;-78
2023/10/04 11:30:50;;;;;;;13.63;3.42;;;;;;;21.84;93.41;99567.91;4999161;28;20504;-78